Time;durP1;ratioP1;P1;durP2;ratioP2;P2;SDS_P1;SDS_P2;PMS_P1;PMS_P2;Temp;Humidity;BMP_temperature;BMP_pressure;BME280_temperature;BME280_humidity;BME280_pressure;Samples;Min_cycle;Max_cycle;Signal;HPM_P1;HPM_P2
2022/06/08 00:00:48;;;;;;;8.40;6.70;;;;;;;-128.00;-1.00;-1.00;100122;1299;1003629;-24
2022/06/08 00:03:19;;;;;;;7.60;6.10;;;;;;;-128.00;-1.00;-1.00;100216;1299;1003457;-29
2022/06/08 00:05:49;;;;;;;6.60;6.00;;;;;;;-128.00;-1.00;-1.00;100172;1299;1003937;-25
2022/06/08 00:08:19;;;;;;;5.90;5.40;;;;;;;-128.00;-1.00;-1.00;100221;1299;1003686;-24
2022/06/08 00:10:48;;;;;;;7.90;5.70;;;;;;;-128.00;-1.00;-1.00;100188;1299;1003610;-24
2022/06/08 00:13:17;;;;;;;8.90;6.70;;;;;;;-128.00;-1.00;-1.00;100052;1299;1004552;-28
2022/06/08 00:15:47;;;;;;;7.00;6.20;;;;;;;-128.00;-1.00;-1.00;100150;1299;1003441;-29
2022/06/08 00:18:16;;;;;;;4.90;4.50;;;;;;;-128.00;-1.00;-1.00;100141;1299;1002799;-29
2022/06/08 00:20:45;;;;;;;10.10;6.40;;;;;;;-128.00;-1.00;-1.00;99980;1299;1003437;-29
2022/06/08 00:23:14;;;;;;;7.50;5.70;;;;;;;-128.00;-1.00;-1.00;100138;1299;1003723;-29
2022/06/08 00:25:43;;;;;;;7.60;5.40;;;;;;;-128.00;-1.00;-1.00;100163;1299;1003999;-29
2022/06/08 00:28:13;;;;;;;12.90;8.10;;;;;;;-128.00;-1.00;-1.00;100132;1299;1003957;-29
2022/06/08 00:30:43;;;;;;;8.70;5.40;;;;;;;-128.00;-1.00;-1.00;100096;1299;1003791;-25
2022/06/08 00:33:12;;;;;;;9.30;5.40;;;;;;;-128.00;-1.00;-1.00;100173;1299;1002887;-25
2022/06/08 00:35:41;;;;;;;8.10;5.10;;;;;;;-128.00;-1.00;-1.00;100204;1299;1002672;-26
2022/06/08 00:38:10;;;;;;;10.60;5.80;;;;;;;-128.00;-1.00;-1.00;100135;1299;1004089;-29
2022/06/08 00:40:44;;;;;;;11.40;7.60;;;;;;;-128.00;-1.00;-1.00;100144;1299;1003310;-29
2022/06/08 00:43:13;;;;;;;16.00;9.20;;;;;;;-128.00;-1.00;-1.00;100139;1299;1004226;-30
2022/06/08 00:45:43;;;;;;;15.90;8.90;;;;;;;-128.00;-1.00;-1.00;100189;1299;1003343;-29
2022/06/08 00:48:12;;;;;;;8.60;7.00;;;;;;;-128.00;-1.00;-1.00;100208;1299;1004363;-27
2022/06/08 00:50:44;;;;;;;10.20;7.30;;;;;;;-128.00;-1.00;-1.00;100133;1299;1003871;-29
2022/06/08 00:53:15;;;;;;;7.50;6.20;;;;;;;-128.00;-1.00;-1.00;100178;1298;1003645;-29
2022/06/08 00:55:44;;;;;;;9.30;5.90;;;;;;;-128.00;-1.00;-1.00;100019;1299;1003993;-29
2022/06/08 00:58:18;;;;;;;8.20;5.50;;;;;;;-128.00;-1.00;-1.00;100157;1299;1003483;-29
2022/06/08 01:00:47;;;;;;;7.20;6.30;;;;;;;-128.00;-1.00;-1.00;100176;1299;1003869;-23
2022/06/08 01:03:17;;;;;;;10.70;8.40;;;;;;;-128.00;-1.00;-1.00;100176;1299;1003517;-29
2022/06/08 01:05:49;;;;;;;8.60;6.70;;;;;;;-128.00;-1.00;-1.00;100153;1299;1003310;-29
2022/06/08 01:08:24;;;;;;;7.00;5.80;;;;;;;-128.00;-1.00;-1.00;100123;1299;1003691;-30
2022/06/08 01:10:55;;;;;;;8.80;7.40;;;;;;;-128.00;-1.00;-1.00;100173;1298;1003746;-31
2022/06/08 01:13:26;;;;;;;5.10;4.70;;;;;;;-128.00;-1.00;-1.00;100112;1299;1002988;-31
2022/06/08 01:15:55;;;;;;;5.40;4.60;;;;;;;-128.00;-1.00;-1.00;100157;1298;1003684;-31
2022/06/08 01:18:24;;;;;;;7.00;6.40;;;;;;;-128.00;-1.00;-1.00;100158;1298;1004221;-24
2022/06/08 01:20:55;;;;;;;8.10;6.50;;;;;;;-128.00;-1.00;-1.00;100182;1298;1003382;-31
2022/06/08 01:23:24;;;;;;;7.90;5.80;;;;;;;-128.00;-1.00;-1.00;100166;1299;1005309;-25
2022/06/08 01:25:54;;;;;;;6.60;6.00;;;;;;;-128.00;-1.00;-1.00;100171;1299;1003323;-25
2022/06/08 01:28:30;;;;;;;6.40;5.80;;;;;;;-128.00;-1.00;-1.00;100180;1299;1004134;-28
2022/06/08 01:31:02;;;;;;;7.40;6.80;;;;;;;-128.00;-1.00;-1.00;100146;1299;1003748;-25
2022/06/08 01:33:36;;;;;;;7.50;6.40;;;;;;;-128.00;-1.00;-1.00;100162;1298;1002948;-24
2022/06/08 01:36:09;;;;;;;;;;;;;;;-128.00;-1.00;-1.00;100152;1299;1004842;-29
2022/06/08 01:38:46;;;;;;;5.80;5.20;;;;;;;-128.00;-1.00;-1.00;100060;1299;1003027;-24
2022/06/08 01:41:19;;;;;;;7.20;6.60;;;;;;;-128.00;-1.00;-1.00;100149;1299;1004424;-29
2022/06/08 01:43:56;;;;;;;5.50;5.00;;;;;;;-128.00;-1.00;-1.00;100162;1299;1002785;-25
2022/06/08 01:46:27;;;;;;;11.10;7.00;;;;;;;-128.00;-1.00;-1.00;100142;1299;1003808;-29
2022/06/08 01:49:06;;;;;;;6.50;5.70;;;;;;;-128.00;-1.00;-1.00;100199;1299;1003298;-25
2022/06/08 01:51:42;;;;;;;7.80;6.80;;;;;;;-128.00;-1.00;-1.00;100130;1298;1003671;-29
2022/06/08 01:54:18;;;;;;;6.10;5.60;;;;;;;-128.00;-1.00;-1.00;100189;1299;1003322;-24
2022/06/08 01:56:50;;;;;;;5.40;4.70;;;;;;;-128.00;-1.00;-1.00;100136;1299;1004735;-29
2022/06/08 01:59:20;;;;;;;6.70;4.80;;;;;;;-128.00;-1.00;-1.00;100181;1298;1004432;-23
2022/06/08 02:01:52;;;;;;;6.60;5.90;;;;;;;-128.00;-1.00;-1.00;100168;1298;1003289;-26
2022/06/08 02:04:28;;;;;;;7.30;6.60;;;;;;;-128.00;-1.00;-1.00;100162;1298;1004310;-26
2022/06/08 02:07:05;;;;;;;7.60;6.80;;;;;;;-128.00;-1.00;-1.00;100089;1299;1003816;-26
2022/06/08 02:09:38;;;;;;;5.50;5.10;;;;;;;-128.00;-1.00;-1.00;100116;1299;1003753;-29
2022/06/08 02:12:09;;;;;;;3.50;3.10;;;;;;;-128.00;-1.00;-1.00;100128;1296;1004442;-24
2022/06/08 02:14:44;;;;;;;4.70;4.30;;;;;;;-128.00;-1.00;-1.00;100079;1299;1004112;-24
2022/06/08 02:17:19;;;;;;;7.50;5.50;;;;;;;-128.00;-1.00;-1.00;100147;1299;1003658;-29
2022/06/08 02:19:51;;;;;;;5.90;5.20;;;;;;;-128.00;-1.00;-1.00;100189;1298;1003669;-24
2022/06/08 02:22:26;;;;;;;7.70;7.10;;;;;;;-128.00;-1.00;-1.00;100142;1298;1003913;-24
2022/06/08 02:25:00;;;;;;;6.00;3.80;;;;;;;-128.00;-1.00;-1.00;100110;1299;1003735;-24
2022/06/08 02:27:33;;;;;;;6.50;4.90;;;;;;;-128.00;-1.00;-1.00;100163;1296;1003766;-31
2022/06/08 02:30:08;;;;;;;7.70;6.00;;;;;;;-128.00;-1.00;-1.00;100178;1299;1003356;-24
2022/06/08 02:35:15;;;;;;;6.60;6.00;;;;;;;-128.00;-1.00;-1.00;100176;1299;1003361;-24
2022/06/08 02:37:45;;;;;;;6.90;6.30;;;;;;;-128.00;-1.00;-1.00;100169;1299;1003001;-25
2022/06/08 02:40:17;;;;;;;5.50;4.60;;;;;;;-128.00;-1.00;-1.00;100166;1299;1003794;-25
2022/06/08 02:42:50;;;;;;;8.90;5.20;;;;;;;-128.00;-1.00;-1.00;100194;1299;1002928;-25
2022/06/08 02:45:22;;;;;;;5.60;5.00;;;;;;;-128.00;-1.00;-1.00;100099;1299;1003023;-29
2022/06/08 02:47:54;;;;;;;5.40;4.90;;;;;;;-128.00;-1.00;-1.00;100135;1299;1003970;-25
2022/06/08 02:50:24;;;;;;;6.60;6.00;;;;;;;-128.00;-1.00;-1.00;100163;1299;1004293;-29
2022/06/08 02:53:07;;;;;;;10.20;4.70;;;;;;;-128.00;-1.00;-1.00;100123;1298;1003823;-26
2022/06/08 02:55:40;;;;;;;5.80;5.20;;;;;;;-128.00;-1.00;-1.00;100131;1299;1003980;-25
2022/06/08 02:58:14;;;;;;;6.60;6.00;;;;;;;-128.00;-1.00;-1.00;100101;1299;1002863;-29
2022/06/08 03:00:49;;;;;;;6.40;5.80;;;;;;;-128.00;-1.00;-1.00;100071;1299;1003389;-28
2022/06/08 03:03:20;;;;;;;4.80;4.10;;;;;;;-128.00;-1.00;-1.00;100093;1299;1004209;-24
2022/06/08 03:05:54;;;;;;;5.60;4.10;;;;;;;-128.00;-1.00;-1.00;100150;1299;1004563;-24
2022/06/08 03:08:28;;;;;;;3.80;3.40;;;;;;;-128.00;-1.00;-1.00;100138;1299;1004168;-24
2022/06/08 03:10:58;;;;;;;5.70;5.10;;;;;;;-128.00;-1.00;-1.00;100142;1299;1003989;-26
2022/06/08 03:13:31;;;;;;;11.00;5.30;;;;;;;-128.00;-1.00;-1.00;100220;1299;1004033;-29
2022/06/08 03:16:02;;;;;;;5.40;4.70;;;;;;;-128.00;-1.00;-1.00;100202;1299;1003497;-24
2022/06/08 03:18:31;;;;;;;16.20;8.00;;;;;;;-128.00;-1.00;-1.00;100159;1299;1003350;-25
2022/06/08 03:21:02;;;;;;;8.60;6.10;;;;;;;-128.00;-1.00;-1.00;100209;1298;1004319;-29
2022/06/08 03:23:31;;;;;;;6.80;5.60;;;;;;;-128.00;-1.00;-1.00;100173;1299;1003904;-25
2022/06/08 03:26:00;;;;;;;7.10;5.90;;;;;;;-128.00;-1.00;-1.00;100151;1299;1003447;-29
2022/06/08 03:28:30;;;;;;;7.10;6.00;;;;;;;-128.00;-1.00;-1.00;100200;1299;1003434;-29
2022/06/08 03:30:59;;;;;;;5.90;5.40;;;;;;;-128.00;-1.00;-1.00;100154;1299;1002604;-29
2022/06/08 03:33:29;;;;;;;6.60;6.00;;;;;;;-128.00;-1.00;-1.00;100192;1299;1003607;-28
2022/06/08 03:35:58;;;;;;;13.80;7.10;;;;;;;-128.00;-1.00;-1.00;100186;1298;1003306;-29
2022/06/08 03:38:27;;;;;;;10.90;7.40;;;;;;;-128.00;-1.00;-1.00;100184;1299;1003837;-25
2022/06/08 03:40:57;;;;;;;8.90;7.20;;;;;;;-128.00;-1.00;-1.00;100105;1299;1003636;-31
2022/06/08 03:43:26;;;;;;;6.00;5.40;;;;;;;-128.00;-1.00;-1.00;100106;1299;1004416;-31
2022/06/08 03:45:57;;;;;;;6.70;5.60;;;;;;;-128.00;-1.00;-1.00;100224;1299;1003566;-26
2022/06/08 03:48:26;;;;;;;7.20;6.60;;;;;;;-128.00;-1.00;-1.00;100123;1299;1003168;-26
2022/06/08 03:50:56;;;;;;;6.70;5.70;;;;;;;-128.00;-1.00;-1.00;100158;1299;1004448;-31
2022/06/08 03:53:29;;;;;;;8.80;8.00;;;;;;;-128.00;-1.00;-1.00;100140;1299;1003974;-27
2022/06/08 03:55:58;;;;;;;5.90;5.30;;;;;;;-128.00;-1.00;-1.00;100173;1299;1003653;-29
2022/06/08 03:58:27;;;;;;;7.00;6.40;;;;;;;-128.00;-1.00;-1.00;100188;1299;1004145;-24
2022/06/08 04:00:56;;;;;;;6.90;5.70;;;;;;;-128.00;-1.00;-1.00;100079;1299;1004074;-29
2022/06/08 04:03:26;;;;;;;8.80;7.90;;;;;;;-128.00;-1.00;-1.00;100171;1299;1003710;-29
2022/06/08 04:05:56;;;;;;;6.90;6.30;;;;;;;-128.00;-1.00;-1.00;100187;1299;1004098;-29
2022/06/08 04:08:25;;;;;;;6.80;5.60;;;;;;;-128.00;-1.00;-1.00;99917;1299;1003594;-25
2022/06/08 04:10:54;;;;;;;7.60;6.90;;;;;;;-128.00;-1.00;-1.00;100183;1299;1004048;-29
2022/06/08 04:13:23;;;;;;;6.00;5.30;;;;;;;-128.00;-1.00;-1.00;100180;1299;1004047;-29
2022/06/08 04:15:53;;;;;;;6.80;5.90;;;;;;;-128.00;-1.00;-1.00;99750;1299;1003176;-25
2022/06/08 04:18:23;;;;;;;6.50;6.00;;;;;;;-128.00;-1.00;-1.00;100202;1299;1003239;-25
2022/06/08 04:20:54;;;;;;;5.40;4.20;;;;;;;-128.00;-1.00;-1.00;100193;1299;1004344;-29
2022/06/08 04:23:24;;;;;;;6.30;5.30;;;;;;;-128.00;-1.00;-1.00;100125;1299;1004208;-25
2022/06/08 04:25:53;;;;;;;7.30;6.00;;;;;;;-128.00;-1.00;-1.00;100146;1299;1003251;-25
2022/06/08 04:28:23;;;;;;;7.40;4.40;;;;;;;-128.00;-1.00;-1.00;100103;1300;1003732;-28
2022/06/08 04:30:53;;;;;;;7.70;6.70;;;;;;;-128.00;-1.00;-1.00;100155;1299;1003349;-24
2022/06/08 04:33:22;;;;;;;6.90;5.90;;;;;;;-128.00;-1.00;-1.00;100058;1299;1004723;-24
2022/06/08 04:35:51;;;;;;;6.30;5.40;;;;;;;-128.00;-1.00;-1.00;100152;1299;1003630;-27
2022/06/08 04:38:20;;;;;;;7.30;5.20;;;;;;;-128.00;-1.00;-1.00;100160;1297;1004026;-27
2022/06/08 04:40:49;;;;;;;7.00;5.30;;;;;;;-128.00;-1.00;-1.00;100014;1299;1003200;-31
2022/06/08 04:43:19;;;;;;;6.10;5.60;;;;;;;-128.00;-1.00;-1.00;100130;1299;1003331;-29
2022/06/08 04:45:48;;;;;;;7.30;6.10;;;;;;;-128.00;-1.00;-1.00;100142;1299;1003724;-25
2022/06/08 04:48:17;;;;;;;5.30;4.70;;;;;;;-128.00;-1.00;-1.00;100160;1296;1003921;-25
2022/06/08 04:50:46;;;;;;;6.90;6.10;;;;;;;-128.00;-1.00;-1.00;100114;1299;1004278;-29
2022/06/08 04:53:16;;;;;;;7.50;6.90;;;;;;;-128.00;-1.00;-1.00;100201;1299;1004392;-29
2022/06/08 04:55:45;;;;;;;6.00;5.20;;;;;;;-128.00;-1.00;-1.00;100134;1299;1004306;-24
2022/06/08 04:58:14;;;;;;;6.70;5.50;;;;;;;-128.00;-1.00;-1.00;100167;1299;1003565;-31
2022/06/08 05:00:43;;;;;;;6.40;5.80;;;;;;;-128.00;-1.00;-1.00;99968;1299;1002970;-28
2022/06/08 05:03:12;;;;;;;8.40;5.60;;;;;;;-128.00;-1.00;-1.00;100170;1299;1004190;-29
2022/06/08 05:05:42;;;;;;;8.20;7.30;;;;;;;-128.00;-1.00;-1.00;100191;1299;1005049;-29
2022/06/08 05:08:11;;;;;;;8.80;7.80;;;;;;;-128.00;-1.00;-1.00;100123;1299;1004275;-25
2022/06/08 05:10:40;;;;;;;8.20;7.00;;;;;;;-128.00;-1.00;-1.00;100128;1299;1003723;-25
2022/06/08 05:13:10;;;;;;;7.90;6.70;;;;;;;-128.00;-1.00;-1.00;100163;1299;1004291;-29
2022/06/08 05:15:40;;;;;;;8.60;7.70;;;;;;;-128.00;-1.00;-1.00;100137;1299;1003877;-24
2022/06/08 05:18:10;;;;;;;6.90;6.20;;;;;;;-128.00;-1.00;-1.00;100079;1299;1003535;-29
2022/06/08 05:20:40;;;;;;;8.10;7.10;;;;;;;-128.00;-1.00;-1.00;100192;1299;1003587;-25
2022/06/08 05:23:13;;;;;;;6.80;6.30;;;;;;;-128.00;-1.00;-1.00;100125;1299;1003741;-32
2022/06/08 05:25:42;;;;;;;11.40;10.50;;;;;;;-128.00;-1.00;-1.00;100134;1298;1004053;-25
2022/06/08 05:28:13;;;;;;;8.90;8.00;;;;;;;-128.00;-1.00;-1.00;100069;1299;1003532;-25
2022/06/08 05:30:43;;;;;;;7.50;5.90;;;;;;;-128.00;-1.00;-1.00;100225;1299;1004953;-29
2022/06/08 05:33:12;;;;;;;7.40;6.80;;;;;;;-128.00;-1.00;-1.00;100125;1299;1003015;-24
2022/06/08 05:35:42;;;;;;;7.50;6.90;;;;;;;-128.00;-1.00;-1.00;100171;1299;1003807;-24
2022/06/08 05:38:11;;;;;;;6.90;6.30;;;;;;;-128.00;-1.00;-1.00;100181;1299;1003501;-25
2022/06/08 05:40:41;;;;;;;6.20;5.70;;;;;;;-128.00;-1.00;-1.00;100125;1299;1004502;-29
2022/06/08 05:43:11;;;;;;;7.90;7.20;;;;;;;-128.00;-1.00;-1.00;100105;1299;1003960;-25
2022/06/08 05:45:41;;;;;;;7.00;6.40;;;;;;;-128.00;-1.00;-1.00;100174;1299;1004397;-25
2022/06/08 05:48:10;;;;;;;11.00;6.60;;;;;;;-128.00;-1.00;-1.00;100171;1299;1002882;-25
2022/06/08 05:50:39;;;;;;;5.60;4.90;;;;;;;-128.00;-1.00;-1.00;100171;1298;1004177;-24
2022/06/08 05:53:09;;;;;;;7.90;6.60;;;;;;;-128.00;-1.00;-1.00;100107;1299;1004129;-31
2022/06/08 05:55:38;;;;;;;7.30;6.50;;;;;;;-128.00;-1.00;-1.00;100046;1299;1003628;-29
2022/06/08 05:58:07;;;;;;;7.20;6.60;;;;;;;-128.00;-1.00;-1.00;100162;1299;1003674;-31
2022/06/08 06:00:38;;;;;;;5.70;5.20;;;;;;;-128.00;-1.00;-1.00;100088;1299;1003416;-29
2022/06/08 06:03:08;;;;;;;6.60;5.90;;;;;;;-128.00;-1.00;-1.00;100133;1298;1003609;-29
2022/06/08 06:05:38;;;;;;;10.60;7.00;;;;;;;-128.00;-1.00;-1.00;100216;1299;1003581;-29
2022/06/08 06:08:08;;;;;;;5.30;4.70;;;;;;;-128.00;-1.00;-1.00;100159;1298;1003686;-28
2022/06/08 06:10:39;;;;;;;10.10;5.80;;;;;;;-128.00;-1.00;-1.00;100057;1299;1003840;-31
2022/06/08 06:13:08;;;;;;;7.10;6.30;;;;;;;-128.00;-1.00;-1.00;100147;1298;1003453;-27
2022/06/08 06:15:37;;;;;;;10.10;7.10;;;;;;;-128.00;-1.00;-1.00;100189;1299;1003707;-25
2022/06/08 06:18:07;;;;;;;10.70;7.10;;;;;;;-128.00;-1.00;-1.00;100211;1299;1003137;-25
2022/06/08 06:20:36;;;;;;;7.40;6.70;;;;;;;-128.00;-1.00;-1.00;100172;1299;1004184;-25
2022/06/08 06:23:05;;;;;;;5.40;4.50;;;;;;;-128.00;-1.00;-1.00;100177;1298;1004426;-30
2022/06/08 06:25:34;;;;;;;6.90;6.30;;;;;;;-128.00;-1.00;-1.00;100166;1298;1003815;-26
2022/06/08 06:28:03;;;;;;;4.70;4.20;;;;;;;-128.00;-1.00;-1.00;100201;1299;1004250;-29
2022/06/08 06:30:33;;;;;;;9.90;5.80;;;;;;;-128.00;-1.00;-1.00;100121;1298;1004448;-25
2022/06/08 06:33:02;;;;;;;7.40;5.50;;;;;;;-128.00;-1.00;-1.00;100165;1298;1002987;-29
2022/06/08 06:35:31;;;;;;;6.90;6.00;;;;;;;-128.00;-1.00;-1.00;100201;1299;1003985;-25
2022/06/08 06:38:01;;;;;;;7.70;6.50;;;;;;;-128.00;-1.00;-1.00;100171;1298;1003985;-25
2022/06/08 06:40:30;;;;;;;6.20;5.60;;;;;;;-128.00;-1.00;-1.00;100177;1299;1003633;-25
2022/06/08 06:43:00;;;;;;;6.50;6.00;;;;;;;-128.00;-1.00;-1.00;100167;1299;1003725;-29
2022/06/08 06:45:29;;;;;;;5.50;5.10;;;;;;;-128.00;-1.00;-1.00;100170;1299;1003962;-27
2022/06/08 06:47:58;;;;;;;5.20;4.70;;;;;;;-128.00;-1.00;-1.00;100032;1299;1003863;-29
2022/06/08 06:50:28;;;;;;;6.70;4.90;;;;;;;-128.00;-1.00;-1.00;100198;1299;1004458;-24
2022/06/08 06:52:59;;;;;;;4.40;3.90;;;;;;;-128.00;-1.00;-1.00;99969;1299;1004302;-29
2022/06/08 06:55:29;;;;;;;4.50;3.80;;;;;;;-128.00;-1.00;-1.00;100223;1299;1003022;-25
2022/06/08 06:57:59;;;;;;;6.00;5.40;;;;;;;-128.00;-1.00;-1.00;100093;1300;1003495;-28
2022/06/08 07:00:28;;;;;;;5.80;4.90;;;;;;;-128.00;-1.00;-1.00;100055;1299;1004679;-29
2022/06/08 07:02:57;;;;;;;7.60;6.90;;;;;;;-128.00;-1.00;-1.00;100165;1299;1004398;-29
2022/06/08 07:05:29;;;;;;;5.60;5.10;;;;;;;-128.00;-1.00;-1.00;100154;1298;1004161;-30
2022/06/08 07:07:59;;;;;;;5.80;5.30;;;;;;;-128.00;-1.00;-1.00;100120;1299;1002890;-30
2022/06/08 07:10:29;;;;;;;6.70;5.80;;;;;;;-128.00;-1.00;-1.00;100187;1299;1003052;-29
2022/06/08 07:12:58;;;;;;;5.40;4.50;;;;;;;-128.00;-1.00;-1.00;100188;1299;1004079;-25
2022/06/08 07:15:27;;;;;;;4.60;4.10;;;;;;;-128.00;-1.00;-1.00;100179;1299;1003375;-25
2022/06/08 07:17:57;;;;;;;7.50;4.30;;;;;;;-128.00;-1.00;-1.00;100092;1299;1003749;-29
2022/06/08 07:20:26;;;;;;;5.60;4.20;;;;;;;-128.00;-1.00;-1.00;100178;1297;1003277;-31
2022/06/08 07:22:55;;;;;;;4.70;4.30;;;;;;;-128.00;-1.00;-1.00;100204;1299;1003445;-29
2022/06/08 07:25:26;;;;;;;4.80;4.30;;;;;;;-128.00;-1.00;-1.00;100141;1299;1003662;-26
2022/06/08 07:27:55;;;;;;;4.60;4.30;;;;;;;-128.00;-1.00;-1.00;100183;1299;1004008;-29
2022/06/08 07:30:24;;;;;;;5.70;5.20;;;;;;;-128.00;-1.00;-1.00;100109;1299;1003762;-29
2022/06/08 07:32:54;;;;;;;6.60;6.10;;;;;;;-128.00;-1.00;-1.00;100266;1298;1003889;-24
2022/06/08 07:35:23;;;;;;;5.50;5.10;;;;;;;-128.00;-1.00;-1.00;100255;1299;1003901;-28
2022/06/08 07:37:52;;;;;;;4.50;4.10;;;;;;;-128.00;-1.00;-1.00;100163;1299;1003950;-29
2022/06/08 07:40:21;;;;;;;10.00;5.10;;;;;;;-128.00;-1.00;-1.00;100150;1299;1003237;-25
2022/06/08 07:42:50;;;;;;;5.10;4.30;;;;;;;-128.00;-1.00;-1.00;100163;1299;1003558;-26
2022/06/08 07:45:20;;;;;;;7.90;5.80;;;;;;;-128.00;-1.00;-1.00;100156;1299;1004548;-25
2022/06/08 07:50:21;;;;;;;5.00;4.60;;;;;;;-128.00;-1.00;-1.00;100147;1297;1002500;-29
2022/06/08 07:52:51;;;;;;;4.60;4.20;;;;;;;-128.00;-1.00;-1.00;100166;1299;1004343;-25
2022/06/08 07:55:21;;;;;;;5.40;4.80;;;;;;;-128.00;-1.00;-1.00;100199;1299;1004020;-29
2022/06/08 07:57:50;;;;;;;4.70;4.30;;;;;;;-128.00;-1.00;-1.00;100132;1298;1003190;-25
2022/06/08 08:00:20;;;;;;;4.50;4.10;;;;;;;-128.00;-1.00;-1.00;100207;1299;1003870;-26
2022/06/08 08:02:49;;;;;;;5.70;5.30;;;;;;;-128.00;-1.00;-1.00;100193;1299;1003092;-25
2022/06/08 08:05:19;;;;;;;5.10;4.60;;;;;;;-128.00;-1.00;-1.00;100246;1299;1003354;-29
2022/06/08 08:07:49;;;;;;;5.40;4.30;;;;;;;-128.00;-1.00;-1.00;100134;1299;1004221;-28
2022/06/08 08:10:21;;;;;;;5.30;4.80;;;;;;;-128.00;-1.00;-1.00;100157;1299;1003630;-25
2022/06/08 08:12:51;;;;;;;4.50;3.80;;;;;;;-128.00;-1.00;-1.00;100149;1299;1004034;-29
2022/06/08 08:15:21;;;;;;;5.90;3.80;;;;;;;-128.00;-1.00;-1.00;100174;1299;1003365;-29
2022/06/08 08:17:50;;;;;;;5.70;4.10;;;;;;;-128.00;-1.00;-1.00;100087;1299;1003357;-28
2022/06/08 08:20:20;;;;;;;5.70;4.70;;;;;;;-128.00;-1.00;-1.00;100168;1299;1003229;-25
2022/06/08 08:22:49;;;;;;;5.20;4.70;;;;;;;-128.00;-1.00;-1.00;100071;1299;1004362;-25
2022/06/08 08:25:18;;;;;;;4.40;4.00;;;;;;;-128.00;-1.00;-1.00;100118;1299;1003429;-29
2022/06/08 08:27:48;;;;;;;5.30;4.30;;;;;;;-128.00;-1.00;-1.00;100200;1299;1003190;-25
2022/06/08 08:30:18;;;;;;;4.30;3.60;;;;;;;-128.00;-1.00;-1.00;100112;1299;1003678;-29
2022/06/08 08:32:48;;;;;;;6.40;5.70;;;;;;;-128.00;-1.00;-1.00;100126;1299;1004467;-29
2022/06/08 08:35:17;;;;;;;6.00;5.50;;;;;;;-128.00;-1.00;-1.00;100246;1299;1002671;-24
2022/06/08 08:37:46;;;;;;;5.10;4.70;;;;;;;-128.00;-1.00;-1.00;100347;1299;1003507;-29
2022/06/08 08:40:22;;;;;;;5.90;5.40;;;;;;;-128.00;-1.00;-1.00;100348;1299;1003545;-29
2022/06/08 08:42:51;;;;;;;5.00;4.70;;;;;;;-128.00;-1.00;-1.00;100101;1299;1003082;-29
2022/06/08 08:45:21;;;;;;;5.60;5.10;;;;;;;-128.00;-1.00;-1.00;100212;1299;1004338;-29
2022/06/08 08:47:55;;;;;;;4.90;4.50;;;;;;;-128.00;-1.00;-1.00;100204;1299;1003470;-29
2022/06/08 08:50:30;;;;;;;5.30;4.80;;;;;;;-128.00;-1.00;-1.00;100155;1299;1003301;-24
2022/06/08 08:53:12;;;;;;;5.20;4.50;;;;;;;-128.00;-1.00;-1.00;100141;1299;1003232;-29
2022/06/08 08:55:47;;;;;;;5.70;4.80;;;;;;;-128.00;-1.00;-1.00;100104;1299;1003767;-29
2022/06/08 08:58:19;;;;;;;8.50;5.60;;;;;;;-128.00;-1.00;-1.00;100186;1299;1003812;-25
2022/06/08 09:00:53;;;;;;;5.20;4.70;;;;;;;-128.00;-1.00;-1.00;100014;1299;1003183;-29
2022/06/08 09:03:24;;;;;;;5.20;4.50;;;;;;;-128.00;-1.00;-1.00;100109;1299;1004112;-29
2022/06/08 09:05:57;;;;;;;5.40;4.60;;;;;;;-128.00;-1.00;-1.00;100122;1299;1003617;-29
2022/06/08 09:08:26;;;;;;;5.80;5.30;;;;;;;-128.00;-1.00;-1.00;100186;1299;1003534;-25
2022/06/08 09:10:57;;;;;;;6.70;5.80;;;;;;;-128.00;-1.00;-1.00;100162;1299;1004449;-29
2022/06/08 09:13:43;;;;;;;6.10;5.50;;;;;;;-128.00;-1.00;-1.00;100133;1299;1003391;-29
2022/06/08 09:16:27;;;;;;;5.60;5.10;;;;;;;-128.00;-1.00;-1.00;100166;1298;1004208;-29
2022/06/08 09:18:57;;;;;;;6.20;5.70;;;;;;;-128.00;-1.00;-1.00;100150;1299;1004334;-29
2022/06/08 09:21:30;;;;;;;7.20;5.90;;;;;;;-128.00;-1.00;-1.00;100133;1299;1003526;-29
2022/06/08 09:24:06;;;;;;;8.40;5.30;;;;;;;-128.00;-1.00;-1.00;100115;1299;1003387;-29
2022/06/08 09:26:39;;;;;;;5.50;4.90;;;;;;;-128.00;-1.00;-1.00;100080;1299;1004036;-25
2022/06/08 09:29:13;;;;;;;15.00;5.00;;;;;;;-128.00;-1.00;-1.00;100016;1299;1004125;-29
2022/06/08 09:31:43;;;;;;;5.40;5.00;;;;;;;-128.00;-1.00;-1.00;100123;1299;1003001;-27
2022/06/08 09:34:17;;;;;;;5.50;4.20;;;;;;;-128.00;-1.00;-1.00;100151;1299;1003915;-26
2022/06/08 09:37:02;;;;;;;7.00;6.40;;;;;;;-128.00;-1.00;-1.00;100119;1299;1002918;-29
2022/06/08 09:39:31;;;;;;;4.70;4.40;;;;;;;-128.00;-1.00;-1.00;100198;1299;1004302;-26
2022/06/08 09:42:05;;;;;;;5.50;4.80;;;;;;;-128.00;-1.00;-1.00;100044;1299;1004191;-25
2022/06/08 09:44:39;;;;;;;7.70;6.80;;;;;;;-128.00;-1.00;-1.00;100287;1299;1004359;-29
2022/06/08 09:52:30;;;;;;;5.70;4.60;;;;;;;-128.00;-1.00;-1.00;100164;1299;1003610;-25
2022/06/08 09:55:08;;;;;;;6.60;5.50;;;;;;;-128.00;-1.00;-1.00;100166;1299;1002846;-25
2022/06/08 09:57:41;;;;;;;6.20;5.50;;;;;;;-128.00;-1.00;-1.00;100088;1299;1002841;-25
2022/06/08 10:00:17;;;;;;;6.10;5.50;;;;;;;-128.00;-1.00;-1.00;100205;1299;1003850;-25
2022/06/08 10:03:09;;;;;;;6.10;4.90;;;;;;;-128.00;-1.00;-1.00;100111;1299;1003345;-29
2022/06/08 10:05:44;;;;;;;4.10;3.60;;;;;;;-128.00;-1.00;-1.00;100182;1299;1003917;-25
2022/06/08 10:08:17;;;;;;;5.10;4.40;;;;;;;-128.00;-1.00;-1.00;100106;1299;1003652;-29
2022/06/08 10:10:49;;;;;;;4.60;4.20;;;;;;;-128.00;-1.00;-1.00;100156;1299;1003140;-25
2022/06/08 10:13:24;;;;;;;4.80;4.30;;;;;;;-128.00;-1.00;-1.00;100154;1299;1003657;-25
2022/06/08 10:15:58;;;;;;;5.80;5.40;;;;;;;-128.00;-1.00;-1.00;100150;1299;1003712;-24
2022/06/08 10:18:31;;;;;;;4.50;3.80;;;;;;;-128.00;-1.00;-1.00;100127;1298;1004283;-25
2022/06/08 10:21:04;;;;;;;8.80;4.40;;;;;;;-128.00;-1.00;-1.00;100154;1299;1003944;-24
2022/06/08 10:23:39;;;;;;;3.30;3.00;;;;;;;-128.00;-1.00;-1.00;100067;1299;1003592;-24
2022/06/08 10:26:14;;;;;;;5.20;3.40;;;;;;;-128.00;-1.00;-1.00;100153;1298;1003177;-28
2022/06/08 10:28:49;;;;;;;7.40;3.20;;;;;;;-128.00;-1.00;-1.00;100148;1299;1004150;-28
2022/06/08 10:31:22;;;;;;;4.40;4.00;;;;;;;-128.00;-1.00;-1.00;100081;1299;1003497;-24
2022/06/08 10:33:55;;;;;;;3.60;3.20;;;;;;;-128.00;-1.00;-1.00;100220;1299;1004205;-24
2022/06/08 10:36:25;;;;;;;4.70;3.20;;;;;;;-128.00;-1.00;-1.00;100120;1299;1003635;-28
2022/06/08 10:38:54;;;;;;;3.00;2.70;;;;;;;-128.00;-1.00;-1.00;100199;1298;1003800;-24
2022/06/08 10:44:03;;;;;;;2.20;2.10;;;;;;;-128.00;-1.00;-1.00;100169;1299;1003767;-24
2022/06/08 10:46:39;;;;;;;3.00;2.20;;;;;;;-128.00;-1.00;-1.00;100189;1299;1003661;-28
2022/06/08 10:49:20;;;;;;;5.00;4.60;;;;;;;-128.00;-1.00;-1.00;100181;1299;1005340;-24
2022/06/08 10:52:12;;;;;;;2.70;2.50;;;;;;;-128.00;-1.00;-1.00;100204;1299;1003537;-28
2022/06/08 10:57:21;;;;;;;2.10;1.90;;;;;;;-128.00;-1.00;-1.00;100173;1299;1004896;-24
2022/06/08 11:00:14;;;;;;;3.50;1.60;;;;;;;-128.00;-1.00;-1.00;100201;1299;1003453;-28
2022/06/08 11:02:43;;;;;;;1.70;1.60;;;;;;;-128.00;-1.00;-1.00;100095;1299;1003184;-26
2022/06/08 11:05:18;;;;;;;2.50;1.90;;;;;;;-128.00;-1.00;-1.00;100192;1299;1003749;-28
2022/06/08 11:07:54;;;;;;;1.20;0.90;;;;;;;-128.00;-1.00;-1.00;100212;1298;1004111;-24
2022/06/08 11:10:44;;;;;;;2.00;1.80;;;;;;;-128.00;-1.00;-1.00;100152;1299;1004226;-24
2022/06/08 11:13:14;;;;;;;2.00;1.90;;;;;;;-128.00;-1.00;-1.00;100194;1299;1004102;-24
2022/06/08 11:15:48;;;;;;;3.60;2.10;;;;;;;-128.00;-1.00;-1.00;100161;1299;1004459;-28
2022/06/08 11:18:23;;;;;;;3.30;1.80;;;;;;;-128.00;-1.00;-1.00;100224;1298;1004197;-28
2022/06/08 11:20:59;;;;;;;3.80;1.70;;;;;;;-128.00;-1.00;-1.00;99998;1299;1005440;-24
2022/06/08 11:23:35;;;;;;;1.70;1.60;;;;;;;-128.00;-1.00;-1.00;100130;1299;1003989;-28
2022/06/08 11:26:14;;;;;;;2.10;1.60;;;;;;;-128.00;-1.00;-1.00;100172;1299;1003412;-24
2022/06/08 11:28:44;;;;;;;1.70;1.50;;;;;;;-128.00;-1.00;-1.00;100219;1299;1003824;-28
2022/06/08 11:31:20;;;;;;;1.40;1.10;;;;;;;-128.00;-1.00;-1.00;100281;1299;1003132;-28
2022/06/08 11:33:51;;;;;;;1.60;1.50;;;;;;;-128.00;-1.00;-1.00;100126;1299;1004064;-28
2022/06/08 11:36:29;;;;;;;1.30;1.10;;;;;;;-128.00;-1.00;-1.00;100166;1299;1003266;-28
2022/06/08 11:39:02;;;;;;;1.60;1.40;;;;;;;-128.00;-1.00;-1.00;100156;1299;1004014;-24
2022/06/08 11:41:35;;;;;;;2.50;1.50;;;;;;;-128.00;-1.00;-1.00;100097;1299;1003492;-24
2022/06/08 11:44:11;;;;;;;1.40;0.80;;;;;;;-128.00;-1.00;-1.00;100281;1298;1003151;-28
2022/06/08 11:46:43;;;;;;;1.20;1.10;;;;;;;-128.00;-1.00;-1.00;100159;1299;1003726;-28
2022/06/08 11:49:16;;;;;;;;;;;;;;;-128.00;-1.00;-1.00;100159;1299;1004023;-24
2022/06/08 11:51:46;;;;;;;1.90;1.60;;;;;;;-128.00;-1.00;-1.00;100094;1299;1003477;-24